createdAt,value
2023-05-20T00:00:22.126Z,102574.13
2023-05-20T00:02:50.963Z,102582.56
2023-05-20T00:05:19.609Z,102585.34
2023-05-20T00:07:48.082Z,102587.31
2023-05-20T00:10:16.827Z,102580.69
2023-05-20T00:12:47.004Z,102580.47
2023-05-20T00:15:15.496Z,102582.97
2023-05-20T00:17:44.109Z,102578.97
2023-05-20T00:20:13.481Z,102577.19
2023-05-20T00:22:42.093Z,102576.31
2023-05-20T00:25:11.478Z,102575.72
2023-05-20T00:27:40.262Z,102573.19
2023-05-20T00:30:11.689Z,102579.06
2023-05-20T00:32:40.272Z,102586.44
2023-05-20T00:35:11.141Z,102588.88
2023-05-20T00:37:40.588Z,102594.56
2023-05-20T00:40:10.296Z,102594.41
2023-05-20T00:42:38.673Z,102585.19
2023-05-20T00:45:08.425Z,102585.59
2023-05-20T00:47:40.270Z,102577.81
2023-05-20T00:50:10.756Z,102584.53
2023-05-20T00:52:41.822Z,102579.16
2023-05-20T00:55:10.955Z,102579.53
2023-05-20T00:57:40.359Z,102578.09
2023-05-20T01:00:12.095Z,102578.66
2023-05-20T01:02:43.691Z,102578.50
2023-05-20T01:05:12.585Z,102585.13
2023-05-20T01:07:42.781Z,102577.16
2023-05-20T01:10:12.596Z,102576.97
2023-05-20T01:12:44.298Z,102568.25
2023-05-20T01:15:15.385Z,102559.22
2023-05-20T01:17:48.304Z,102550.22
2023-05-20T01:20:17.139Z,102560.56
2023-05-20T01:22:51.299Z,102554.19
2023-05-20T01:25:20.015Z,102556.66
2023-05-20T01:27:49.407Z,102557.81
2023-05-20T01:30:18.616Z,102560.28
2023-05-20T01:32:52.218Z,102559.16
2023-05-20T01:35:25.156Z,102559.16
2023-05-20T01:37:57.461Z,102550.97
2023-05-20T01:40:28.087Z,102546.31
2023-05-20T01:42:57.706Z,102543.78
2023-05-20T01:45:27.586Z,102537.97
2023-05-20T01:47:56.765Z,102535.31
2023-05-20T01:50:26.726Z,102542.31
2023-05-20T01:52:57.421Z,102544.22
2023-05-20T01:55:26.449Z,102542.88
2023-05-20T01:57:55.092Z,102544.91
2023-05-20T02:00:23.684Z,102547.47
2023-05-20T02:02:52.321Z,102532.88
2023-05-20T02:05:21.073Z,102544.69
2023-05-20T02:07:49.502Z,102545.47
2023-05-20T02:10:19.834Z,102544.28
2023-05-20T02:12:49.578Z,102548.44
2023-05-20T02:15:18.384Z,102548.72
2023-05-20T02:17:48.561Z,102547.56
2023-05-20T02:20:17.583Z,102547.28
2023-05-20T02:22:46.278Z,102547.56
2023-05-20T02:25:15.118Z,102556.66
2023-05-20T02:27:45.595Z,102550.31
2023-05-20T02:30:14.634Z,102548.13
2023-05-20T02:32:43.575Z,102548.31
2023-05-20T02:35:12.047Z,102554.22
2023-05-20T02:37:42.115Z,102549.00
2023-05-20T02:40:11.298Z,102549.94
2023-05-20T02:42:40.048Z,102549.25
2023-05-20T02:45:11.321Z,102544.91
2023-05-20T02:47:39.976Z,102545.06
2023-05-20T02:50:09.703Z,102546.72
2023-05-20T02:52:40.169Z,102537.78
2023-05-20T02:55:09.711Z,102531.16
2023-05-20T02:57:39.568Z,102533.53
2023-05-20T03:00:12.258Z,102528.88
2023-05-20T03:02:41.888Z,102532.00
2023-05-20T03:05:11.418Z,102525.16
2023-05-20T03:07:39.838Z,102530.53
2023-05-20T03:10:11.035Z,102527.03
2023-05-20T03:12:39.781Z,102524.47
2023-05-20T03:15:11.221Z,102519.47
2023-05-20T03:17:39.825Z,102516.94
2023-05-20T03:20:12.911Z,102519.41
2023-05-20T03:22:41.843Z,102516.84
2023-05-20T03:25:11.296Z,102526.44
2023-05-20T03:27:39.789Z,102530.13
2023-05-20T03:30:11.526Z,102519.19
2023-05-20T03:32:40.161Z,102525.00
2023-05-20T03:35:10.766Z,102519.00
2023-05-20T03:37:39.980Z,102522.13
2023-05-20T03:40:10.639Z,102524.66
2023-05-20T03:42:40.476Z,102532.78
2023-05-20T03:45:13.072Z,102525.09
2023-05-20T03:47:41.780Z,102525.88
2023-05-20T03:50:10.917Z,102514.16
2023-05-20T03:52:41.174Z,102514.06
2023-05-20T03:55:10.487Z,102513.00
2023-05-20T03:57:39.124Z,102507.44
2023-05-20T04:00:12.293Z,102498.44
2023-05-20T04:02:43.669Z,102498.44
2023-05-20T04:05:12.531Z,102506.50
2023-05-20T04:07:41.530Z,102512.75
2023-05-20T04:10:11.668Z,102504.50
2023-05-20T04:12:40.267Z,102515.66
2023-05-20T04:15:10.695Z,102503.06
2023-05-20T04:17:40.753Z,102493.41
2023-05-20T04:20:11.614Z,102496.66
2023-05-20T04:22:40.972Z,102494.09
2023-05-20T04:25:10.718Z,102503.75
2023-05-20T04:27:39.882Z,102496.31
2023-05-20T04:30:10.480Z,102501.72
2023-05-20T04:32:39.322Z,102502.22
2023-05-20T04:35:12.197Z,102505.72
2023-05-20T04:37:44.832Z,102503.09
2023-05-20T04:40:14.951Z,102506.66
2023-05-20T04:42:43.857Z,102511.13
2023-05-20T04:45:13.824Z,102505.91
2023-05-20T04:47:42.762Z,102504.19
2023-05-20T04:50:12.509Z,102509.69
2023-05-20T04:52:43.371Z,102514.09
2023-05-20T04:55:12.886Z,102514.03
2023-05-20T04:57:43.884Z,102505.16
2023-05-20T05:00:14.194Z,102497.78
2023-05-20T05:02:42.729Z,102496.91
2023-05-20T05:05:11.454Z,102500.09
2023-05-20T05:07:41.465Z,102504.41
2023-05-20T05:10:10.953Z,102508.66
2023-05-20T05:12:39.547Z,102503.44
2023-05-20T05:15:10.546Z,102512.00
2023-05-20T05:17:39.472Z,102509.06
2023-05-20T05:20:10.066Z,102498.28
2023-05-20T05:22:39.895Z,102502.81
2023-05-20T05:25:12.024Z,102504.88
2023-05-20T05:27:41.131Z,102509.03
2023-05-20T05:30:11.052Z,102514.59
2023-05-20T05:32:39.751Z,102518.00
2023-05-20T05:35:09.246Z,102510.25
2023-05-20T05:37:38.133Z,102504.28
2023-05-20T05:40:09.273Z,102500.53
2023-05-20T05:42:39.344Z,102492.41
2023-05-20T05:45:09.305Z,102501.81
2023-05-20T05:47:37.974Z,102496.91
2023-05-20T05:50:07.191Z,102508.59
2023-05-20T05:52:35.976Z,102511.88
2023-05-20T05:55:05.111Z,102502.75
2023-05-20T05:57:34.021Z,102506.31
2023-05-20T06:00:04.873Z,102506.59
2023-05-20T06:02:36.748Z,102505.94
2023-05-20T06:05:05.937Z,102498.56
2023-05-20T06:07:34.616Z,102496.31
2023-05-20T06:10:03.111Z,102497.19
2023-05-20T06:12:32.388Z,102494.69
2023-05-20T06:15:01.259Z,102495.28
2023-05-20T06:17:31.460Z,102497.50
2023-05-20T06:20:00.960Z,102499.06
2023-05-20T06:22:31.376Z,102496.81
2023-05-20T06:25:02.577Z,102501.84
2023-05-20T06:27:31.197Z,102499.91
2023-05-20T06:29:59.797Z,102501.72
2023-05-20T06:32:28.347Z,102505.28
2023-05-20T06:34:58.276Z,102501.63
2023-05-20T06:37:26.620Z,102504.63
2023-05-20T06:39:55.362Z,102509.50
2023-05-20T06:42:23.785Z,102513.78
2023-05-20T06:44:52.734Z,102512.56
2023-05-20T06:47:22.494Z,102509.56
2023-05-20T06:49:51.023Z,102506.06
2023-05-20T06:52:21.155Z,102510.53
2023-05-20T06:54:49.720Z,102506.94
2023-05-20T06:57:18.457Z,102503.84
2023-05-20T06:59:47.011Z,102510.38
2023-05-20T07:02:15.619Z,102502.72
2023-05-20T07:04:44.015Z,102505.94
2023-05-20T07:07:12.567Z,102500.63
2023-05-20T07:09:42.580Z,102508.88
2023-05-20T07:12:10.906Z,102509.84
2023-05-20T07:14:39.454Z,102508.41
2023-05-20T07:17:08.105Z,102500.38
2023-05-20T07:19:36.413Z,102503.81
2023-05-20T07:22:04.815Z,102514.59
2023-05-20T07:24:33.862Z,102504.72
2023-05-20T07:27:04.185Z,102505.78
2023-05-20T07:29:33.143Z,102516.97
2023-05-20T07:32:05.667Z,102516.03
2023-05-20T07:34:37.099Z,102508.06
2023-05-20T07:37:07.755Z,102500.59
2023-05-20T07:39:38.444Z,102499.25
2023-05-20T07:42:08.645Z,102505.69
2023-05-20T07:44:37.253Z,102504.22
2023-05-20T07:47:05.848Z,102501.44
2023-05-20T07:49:35.032Z,102502.56
2023-05-20T07:52:04.679Z,102495.84
2023-05-20T07:54:33.690Z,102505.06
2023-05-20T07:57:02.543Z,102510.53
2023-05-20T07:59:32.465Z,102510.09
2023-05-20T08:02:01.201Z,102520.03
2023-05-20T08:04:31.033Z,102521.34
2023-05-20T08:06:59.696Z,102510.75
2023-05-20T08:09:29.140Z,102507.50
2023-05-20T08:11:57.690Z,102504.50
2023-05-20T08:14:26.237Z,102507.31
2023-05-20T08:16:56.385Z,102501.44
2023-05-20T08:19:25.000Z,102498.94
2023-05-20T08:21:53.598Z,102508.09
2023-05-20T08:24:22.370Z,102506.53
2023-05-20T08:26:51.271Z,102503.84
2023-05-20T08:29:20.120Z,102497.13
2023-05-20T08:31:49.705Z,102493.91
2023-05-20T08:34:20.188Z,102498.38
2023-05-20T08:36:49.431Z,102490.13
2023-05-20T08:39:18.100Z,102482.19
2023-05-20T08:41:49.028Z,102484.88
2023-05-20T08:44:20.679Z,102484.50
2023-05-20T08:46:50.538Z,102475.84
2023-05-20T08:49:21.379Z,102467.94
2023-05-20T08:51:50.313Z,102468.84
2023-05-20T08:54:21.282Z,102465.81
2023-05-20T08:56:50.037Z,102465.03
2023-05-20T08:59:20.525Z,102469.88
2023-05-20T09:01:49.131Z,102472.84
2023-05-20T09:04:17.812Z,102463.50
2023-05-20T09:06:49.107Z,102458.94
2023-05-20T09:09:17.805Z,102456.47
2023-05-20T09:11:46.475Z,102445.38
2023-05-20T09:14:14.993Z,102460.72
2023-05-20T09:16:44.431Z,102441.25
2023-05-20T09:19:13.417Z,102449.66
2023-05-20T09:21:44.140Z,102446.16
2023-05-20T09:24:14.193Z,102441.19
2023-05-20T09:26:42.717Z,102443.34
2023-05-20T09:29:11.133Z,102438.56
2023-05-20T09:31:40.027Z,102445.03
2023-05-20T09:34:08.549Z,102449.09
2023-05-20T09:36:37.470Z,102443.13
2023-05-20T09:39:06.626Z,102442.50
2023-05-20T09:41:40.679Z,102438.78
2023-05-20T09:44:10.608Z,102442.50
2023-05-20T09:46:42.367Z,102433.66
2023-05-20T09:49:11.599Z,102431.66
2023-05-20T09:51:42.310Z,102438.69
2023-05-20T09:54:13.515Z,102442.91
2023-05-20T09:56:46.251Z,102434.22
2023-05-20T09:59:17.557Z,102431.22
2023-05-20T10:01:46.947Z,102430.25
2023-05-20T10:04:18.101Z,102423.34
2023-05-20T10:07:14.247Z,102425.25
2023-05-20T10:09:59.074Z,102418.75
2023-05-20T10:12:37.873Z,102409.91
2023-05-20T10:15:19.207Z,102410.47
2023-05-20T10:17:55.130Z,102413.41
2023-05-20T10:20:24.276Z,102418.53
2023-05-20T10:22:58.708Z,102415.56
2023-05-20T10:25:29.704Z,102422.50
2023-05-20T10:28:11.024Z,102420.47
2023-05-20T10:30:41.661Z,102425.22
2023-05-20T10:33:20.492Z,102421.81
2023-05-20T10:35:51.995Z,102429.31
2023-05-20T10:38:21.618Z,102421.84
2023-05-20T10:40:50.215Z,102417.91
2023-05-20T10:43:28.726Z,102416.06
2023-05-20T10:45:58.511Z,102417.72
2023-05-20T10:48:29.440Z,102414.63
2023-05-20T10:50:58.766Z,102403.47
2023-05-20T10:53:33.454Z,102396.38
2023-05-20T10:56:03.205Z,102394.63
2023-05-20T10:58:39.355Z,102396.56
2023-05-20T11:01:08.240Z,102392.94
2023-05-20T11:03:37.941Z,102391.66
2023-05-20T11:06:15.348Z,102395.66
2023-05-20T11:08:45.222Z,102388.13
2023-05-20T11:11:15.154Z,102397.25
2023-05-20T11:13:45.060Z,102392.09
2023-05-20T11:16:13.750Z,102389.13
2023-05-20T11:18:42.564Z,102386.63
2023-05-20T11:21:11.320Z,102377.94
2023-05-20T11:23:49.002Z,102382.25
2023-05-20T11:26:23.652Z,102376.75
2023-05-20T11:28:54.081Z,102379.59
2023-05-20T11:31:23.082Z,102381.44
2023-05-20T11:33:53.735Z,102376.22
2023-05-20T11:36:27.791Z,102376.75
2023-05-20T11:38:59.094Z,102364.63
2023-05-20T11:41:30.999Z,102363.06
2023-05-20T11:44:02.291Z,102355.50
2023-05-20T11:46:30.766Z,102360.69
2023-05-20T11:48:59.736Z,102356.69
2023-05-20T11:51:29.807Z,102354.16
2023-05-20T11:54:02.715Z,102351.13
2023-05-20T11:56:32.363Z,102347.63
2023-05-20T11:59:03.234Z,102350.91
2023-05-20T12:01:34.059Z,102353.75
2023-05-20T12:04:02.932Z,102347.47
2023-05-20T12:06:31.835Z,102351.22
2023-05-20T12:09:07.034Z,102349.81
2023-05-20T12:11:36.904Z,102348.81
2023-05-20T12:14:07.920Z,102342.28
2023-05-20T12:16:37.657Z,102345.81
2023-05-20T12:19:06.712Z,102342.31
2023-05-20T12:21:35.188Z,102344.63
2023-05-20T12:24:05.620Z,102341.81
2023-05-20T12:26:35.651Z,102338.06
2023-05-20T12:29:04.421Z,102339.16
2023-05-20T12:31:35.143Z,102335.50
2023-05-20T12:34:04.275Z,102327.63
2023-05-20T12:36:33.991Z,102331.38
2023-05-20T12:39:02.369Z,102333.44
2023-05-20T12:41:31.200Z,102336.84
2023-05-20T12:43:59.542Z,102331.16
2023-05-20T12:46:28.800Z,102329.41
2023-05-20T12:48:59.947Z,102323.72
2023-05-20T12:51:28.889Z,102320.81
2023-05-20T12:53:57.450Z,102315.25
2023-05-20T12:56:26.636Z,102312.53
2023-05-20T12:58:54.923Z,102323.13
2023-05-20T13:01:23.477Z,102318.38
2023-05-20T13:03:53.514Z,102319.00
2023-05-20T13:06:23.526Z,102316.56
2023-05-20T13:08:51.982Z,102311.78
2023-05-20T13:11:21.987Z,102310.47
2023-05-20T13:13:50.598Z,102302.69
2023-05-20T13:16:19.965Z,102302.06
2023-05-20T13:18:48.456Z,102294.47
2023-05-20T13:21:17.427Z,102296.19
2023-05-20T13:23:47.220Z,102286.66
2023-05-20T13:26:17.110Z,102286.81
2023-05-20T13:28:46.842Z,102288.75
2023-05-20T13:31:15.240Z,102285.75
2023-05-20T13:33:43.993Z,102274.19
2023-05-20T13:36:12.960Z,102272.50
2023-05-20T13:38:41.398Z,102273.97
2023-05-20T13:41:11.492Z,102264.47
2023-05-20T13:43:42.434Z,102273.84
2023-05-20T13:46:11.013Z,102262.53
2023-05-20T13:48:39.420Z,102260.94
2023-05-20T13:51:07.946Z,102254.50
2023-05-20T13:53:36.584Z,102250.00
2023-05-20T13:56:05.642Z,102255.44
2023-05-20T13:58:35.763Z,102255.72
2023-05-20T14:01:05.494Z,102250.59
2023-05-20T14:03:34.800Z,102255.16
2023-05-20T14:06:03.373Z,102250.44
2023-05-20T14:08:31.956Z,102243.78
2023-05-20T14:11:00.408Z,102252.44
2023-05-20T14:13:29.030Z,102247.19
2023-05-20T14:15:59.473Z,102241.63
2023-05-20T14:18:27.991Z,102241.75
2023-05-20T14:20:56.780Z,102241.00
2023-05-20T14:23:25.334Z,102237.31
2023-05-20T14:25:53.650Z,102228.63
2023-05-20T14:28:22.290Z,102231.34
2023-05-20T14:30:50.868Z,102238.97
2023-05-20T14:33:20.992Z,102234.00
2023-05-20T14:35:49.543Z,102229.25
2023-05-20T14:38:19.283Z,102231.09
2023-05-20T14:40:47.821Z,102215.88
2023-05-20T14:43:16.722Z,102208.25
2023-05-20T14:45:47.119Z,102204.16
2023-05-20T14:48:15.754Z,102216.78
2023-05-20T14:50:47.589Z,102213.81
2023-05-20T14:53:19.725Z,102209.78
2023-05-20T14:55:48.586Z,102213.81
2023-05-20T14:58:17.326Z,102205.78
2023-05-20T15:00:45.685Z,102204.63
2023-05-20T15:03:14.242Z,102200.00
2023-05-20T15:05:42.709Z,102197.25
2023-05-20T15:08:12.646Z,102194.47
2023-05-20T15:10:41.738Z,102187.56
2023-05-20T15:13:10.465Z,102183.69
2023-05-20T15:15:38.904Z,102180.91
2023-05-20T15:18:07.484Z,102168.50
2023-05-20T15:20:36.160Z,102163.31
2023-05-20T15:23:05.234Z,102163.91
2023-05-20T15:25:35.490Z,102166.63
2023-05-20T15:28:04.100Z,102168.50
2023-05-20T15:30:32.702Z,102184.66
2023-05-20T15:33:01.828Z,102183.81
2023-05-20T15:35:30.443Z,102185.50
2023-05-20T15:37:59.307Z,102181.72
2023-05-20T15:40:28.358Z,102170.69
2023-05-20T15:42:58.662Z,102174.38
2023-05-20T15:45:27.164Z,102170.22
2023-05-20T15:47:55.774Z,102168.50
2023-05-20T15:50:24.680Z,102174.81
2023-05-20T15:52:54.166Z,102177.97
2023-05-20T15:55:23.469Z,102175.53
2023-05-20T15:57:52.192Z,102177.84
2023-05-20T16:00:22.234Z,102174.44
2023-05-20T16:02:50.949Z,102172.34
2023-05-20T16:05:19.423Z,102169.44
2023-05-20T16:07:48.427Z,102170.44
2023-05-20T16:10:16.658Z,102170.66
2023-05-20T16:12:45.167Z,102160.97
2023-05-20T16:15:13.860Z,102159.88
2023-05-20T16:17:44.122Z,102157.06
2023-05-20T16:20:13.049Z,102154.91
2023-05-20T16:22:41.826Z,102155.16
2023-05-20T16:25:11.322Z,102153.22
2023-05-20T16:27:40.079Z,102154.34
2023-05-20T16:30:09.899Z,102153.59
2023-05-20T16:32:38.394Z,102151.09
2023-05-20T16:35:10.326Z,102159.44
2023-05-20T16:37:39.682Z,102158.09
2023-05-20T16:40:09.751Z,102161.38
2023-05-20T16:42:39.720Z,102160.13
2023-05-20T16:45:09.864Z,102160.03
2023-05-20T16:47:38.576Z,102151.28
2023-05-20T16:50:10.786Z,102145.59
2023-05-20T16:52:39.396Z,102149.44
2023-05-20T16:55:08.860Z,102145.56
2023-05-20T16:57:37.846Z,102134.06
2023-05-20T17:00:09.810Z,102123.63
2023-05-20T17:02:38.380Z,102124.34
2023-05-20T17:05:09.522Z,102110.41
2023-05-20T17:07:38.750Z,102111.16
2023-05-20T17:10:08.016Z,102106.91
2023-05-20T17:12:36.807Z,102112.22
2023-05-20T17:15:06.398Z,102117.56
2023-05-20T17:17:34.975Z,102117.19
2023-05-20T17:20:04.003Z,102118.66
2023-05-20T17:22:33.897Z,102113.91
2023-05-20T17:25:02.325Z,102108.31
2023-05-20T17:27:30.766Z,102113.19
2023-05-20T17:30:00.018Z,102121.06
2023-05-20T17:32:28.437Z,102120.34
2023-05-20T17:34:56.913Z,102126.19
2023-05-20T17:37:25.356Z,102123.16
2023-05-20T17:39:55.907Z,102121.19
2023-05-20T17:42:24.303Z,102126.16
2023-05-20T17:44:52.874Z,102129.06
2023-05-20T17:47:21.604Z,102118.41
2023-05-20T17:49:50.003Z,102111.25
2023-05-20T17:52:18.388Z,102120.34
2023-05-20T17:54:46.726Z,102114.75
2023-05-20T17:57:16.785Z,102119.59
2023-05-20T17:59:45.739Z,102128.13
2023-05-20T18:02:14.307Z,102137.22
2023-05-20T18:04:42.780Z,102135.63
2023-05-20T18:07:11.288Z,102135.50
2023-05-20T18:09:39.829Z,102132.13
2023-05-20T18:12:09.625Z,102126.31
2023-05-20T18:14:39.844Z,102122.53
2023-05-20T18:17:08.422Z,102122.38
2023-05-20T18:19:37.063Z,102124.03
2023-05-20T18:22:07.431Z,102118.22
2023-05-20T18:24:36.239Z,102120.75
2023-05-20T18:27:04.865Z,102121.47
2023-05-20T18:29:33.437Z,102123.63
2023-05-20T18:32:03.372Z,102127.69
2023-05-20T18:34:33.465Z,102130.28
2023-05-20T18:37:02.097Z,102129.44
2023-05-20T18:39:30.930Z,102132.22
2023-05-20T18:41:59.441Z,102125.47
2023-05-20T18:44:27.697Z,102130.38
2023-05-20T18:46:56.436Z,102135.84
2023-05-20T18:49:26.398Z,102124.28
2023-05-20T18:51:55.118Z,102130.13
2023-05-20T18:54:23.577Z,102130.75
2023-05-20T18:56:52.881Z,102128.19
2023-05-20T18:59:23.306Z,102123.59
2023-05-20T19:01:53.452Z,102120.69
2023-05-20T19:04:21.842Z,102124.44
2023-05-20T19:06:53.141Z,102123.03
2023-05-20T19:09:21.816Z,102115.75
2023-05-20T19:11:52.427Z,102126.19
2023-05-20T19:14:21.307Z,102112.19
2023-05-20T19:16:50.032Z,102120.09
2023-05-20T19:19:18.703Z,102122.31
2023-05-20T19:21:47.098Z,102123.41
2023-05-20T19:24:17.910Z,102123.59
2023-05-20T19:26:47.096Z,102127.81
2023-05-20T19:29:15.791Z,102122.59
2023-05-20T19:31:44.461Z,102115.34
2023-05-20T19:34:13.002Z,102124.25
2023-05-20T19:36:43.163Z,102124.28
2023-05-20T19:39:12.215Z,102127.91
2023-05-20T19:41:42.779Z,102123.38
2023-05-20T19:44:12.165Z,102130.00
2023-05-20T19:46:40.886Z,102132.88
2023-05-20T19:49:10.493Z,102143.78
2023-05-20T19:51:38.978Z,102136.84
2023-05-20T19:54:07.624Z,102150.63
2023-05-20T19:56:36.019Z,102146.31
2023-05-20T19:59:06.685Z,102143.88
2023-05-20T20:01:35.205Z,102145.03
2023-05-20T20:04:03.919Z,102134.72
2023-05-20T20:06:32.662Z,102141.16
2023-05-20T20:09:01.521Z,102143.16
2023-05-20T20:11:29.923Z,102145.19
2023-05-20T20:13:58.835Z,102145.53
2023-05-20T20:16:29.421Z,102150.84
2023-05-20T20:18:58.006Z,102156.09
2023-05-20T20:21:27.038Z,102152.59
2023-05-20T20:23:55.533Z,102148.31
2023-05-20T20:26:26.208Z,102145.53
2023-05-20T20:28:54.997Z,102152.16
2023-05-20T20:31:26.844Z,102153.00
2023-05-20T20:33:56.912Z,102146.84
2023-05-20T20:36:25.940Z,102164.41
2023-05-20T20:38:54.535Z,102158.75
2023-05-20T20:41:23.210Z,102158.56
2023-05-20T20:43:51.603Z,102155.91
2023-05-20T20:46:20.435Z,102157.69
2023-05-20T20:48:48.750Z,102160.47
2023-05-20T20:51:19.061Z,102163.22
2023-05-20T20:53:49.103Z,102164.28
2023-05-20T20:56:17.845Z,102170.38
2023-05-20T20:58:46.538Z,102175.56
2023-05-20T21:01:18.118Z,102184.69
2023-05-20T21:03:48.835Z,102188.78
2023-05-20T21:06:19.255Z,102174.28
2023-05-20T21:08:48.126Z,102166.41
2023-05-20T21:11:17.969Z,102156.44
2023-05-20T21:13:46.632Z,102155.66
2023-05-20T21:16:15.011Z,102163.03
2023-05-20T21:18:43.468Z,102165.78
2023-05-20T21:21:14.259Z,102171.38
2023-05-20T21:23:44.184Z,102167.50
2023-05-20T21:26:12.775Z,102173.56
2023-05-20T21:28:41.214Z,102172.81
2023-05-20T21:31:09.767Z,102173.16
2023-05-20T21:33:38.270Z,102164.50
2023-05-20T21:36:07.255Z,102161.84
2023-05-20T21:38:35.851Z,102159.16
2023-05-20T21:41:05.852Z,102158.66
2023-05-20T21:43:36.261Z,102156.00
2023-05-20T21:46:06.049Z,102156.84
2023-05-20T21:48:34.538Z,102155.03
2023-05-20T21:51:03.023Z,102145.13
2023-05-20T21:53:31.703Z,102146.41
2023-05-20T21:56:00.292Z,102148.84
2023-05-20T21:58:30.185Z,102147.78
2023-05-20T22:00:58.949Z,102151.50
2023-05-20T22:03:27.491Z,102141.59
2023-05-20T22:05:56.517Z,102138.94
2023-05-20T22:08:26.801Z,102148.53
2023-05-20T22:10:55.682Z,102153.22
2023-05-20T22:13:26.616Z,102150.66
2023-05-20T22:15:57.367Z,102147.91
2023-05-20T22:18:26.896Z,102149.59
2023-05-20T22:20:56.792Z,102152.38
2023-05-20T22:23:25.667Z,102154.91
2023-05-20T22:25:55.139Z,102162.88
2023-05-20T22:28:23.970Z,102152.16
2023-05-20T22:30:53.031Z,102149.72
2023-05-20T22:33:24.549Z,102141.72
2023-05-20T22:35:53.858Z,102151.59
2023-05-20T22:38:22.385Z,102145.34
2023-05-20T22:40:51.081Z,102149.19
2023-05-20T22:43:23.351Z,102150.47
2023-05-20T22:45:52.028Z,102151.38
2023-05-20T22:48:23.300Z,102161.19
2023-05-20T22:50:54.244Z,102153.13
2023-05-20T22:53:22.886Z,102151.91
2023-05-20T22:55:51.249Z,102146.72
2023-05-20T22:58:19.551Z,102161.28
2023-05-20T23:00:48.288Z,102158.84
2023-05-20T23:03:16.795Z,102149.16
2023-05-20T23:05:45.506Z,102155.31
2023-05-20T23:08:15.343Z,102155.22
2023-05-20T23:10:43.793Z,102156.19
2023-05-20T23:13:12.415Z,102155.31
2023-05-20T23:15:41.244Z,102150.34
2023-05-20T23:18:09.869Z,102157.56
2023-05-20T23:20:38.391Z,102155.66
2023-05-20T23:23:11.247Z,102163.72
2023-05-20T23:25:43.570Z,102167.97
2023-05-20T23:28:13.583Z,102167.41
2023-05-20T23:30:41.920Z,102157.09
2023-05-20T23:33:10.763Z,102161.56
2023-05-20T23:35:40.652Z,102154.66
2023-05-20T23:38:09.229Z,102151.47
2023-05-20T23:40:37.973Z,102143.81
2023-05-20T23:43:08.099Z,102145.81
2023-05-20T23:45:36.776Z,102146.00
2023-05-20T23:48:05.858Z,102149.81
2023-05-20T23:50:34.245Z,102152.78
2023-05-20T23:53:02.752Z,102146.31
2023-05-20T23:55:32.301Z,102149.44
2023-05-20T23:58:00.947Z,102142.72
